Terminal Aerodrome Forecast
Issued by NWS Atlanta, GA

Home | Current Version | Previous Version | Text Only | Print | Product List | Glossary On
Versions: 1 2 3 4 5 6 7 8 9 10 11 12 13
000
FTUS42 KFFC 170520
TAFCSG
TAF
KCSG 170520Z 1706/1806 00000KT P6SM FEW100 BKN250
     FM171400 13004KT P6SM SCT040 SCT100 BKN150
     FM171700 14005KT P6SM BKN040 BKN070
     FM172000 11004KT P6SM VCSH SCT030 OVC040
     FM172200 09004KT 6SM -RA BR OVC040
     FM180100 06002KT 5SM -RA BR OVC025=

USA.gov is the U.S. government's official web portal to all federal, state and local government web resources and services.